Airfield :
LOGIN :

Register | Disclaimer

   EN    FR    IT 

 










Legend :    VFR   Marginal VFR   IFR   Intensive IFR   Very Intensive IFR
Visi :
Ceiling :
>= 8 km
>= 3000ft
5 to 8 km
1000 to 3000 ft
1500m to 5 km
500 to 1000 ft
800 to 1500m
200 to 500 ft
< 800m
< 200 ft
Symbols :   Thunderstorms  Fog  Heavy snow  Heavy precipitations  Wind > 20 kt
SIGMETs :     Misc.  Thunderstorms  Icing  Turbulence  Mountain Waves  Volcanic Ashes






- Airport Elevation : 370 ft


EBBE - Beauvechain AB

CURRENT METAR :
  • 231825Z AUTO 31003KT 9999 NCD 18/09 Q1015 BLU

EXPIRED METARs :
  • 231755Z AUTO 30005KT 9999 FEW095/// 18/10 Q1015 BLU
  • 231725Z AUTO 30005KT 9999 FEW095/// 19/10 Q1015 BLU
  • 231655Z AUTO 28006KT 9999 NCD 20/09 Q1015 BLU
  • 231625Z AUTO 27007KT 9999 FEW043/// 20/10 Q1015 BLU
  • 231555Z AUTO 26005KT 9999 FEW043/// 18/10 Q1015 BLU
  • 231525Z AUTO 24007KT 9999 NCD 20/10 Q1015 BLU
  • 231455Z AUTO 25007KT 9999 NCD 20/09 Q1015 BLU
  • 231425Z 25009KT 9999 FEW030 20/10 Q1015 BLU FCST CANCEL
  • 231423Z 27009KT 9999 FEW030 20/09 Q1015 BLU FCST CANCEL
  • 231355Z 24009KT 9999 FEW030 20/10 Q1015 BLU BLU

TAF TAF EBBE
Valid from the 23 at 19:00 until the 24 at 07:00 UTC


231541Z 2319/2407 22004KT 9999 FEW040



MET'MAP, your aeronautical weather chart ! - Copyright ORBIFLY December 2007 - Disclaimer

ORBIFLY MET'MAP TEAM :

Programming & Development : Alexandra Zaïnal
Original concept : Baudouin d'Aumeries
Technical & hardware support : Manuel Goepfert
Assistance : Marc-Olivier Méhu




SOURCES & CREDITS :

   NOAA